sensor_id;sensor_type;location;lat;lon;timestamp;pressure;altitude;pressure_sealevel;temperature;humidity
68634;BME280;55625;47.072;22.192;2023-03-04T00:01:17;99941.94;;;3.42;100.00
68634;BME280;55625;47.072;22.192;2023-03-04T00:03:43;99947.56;;;3.42;100.00
68634;BME280;55625;47.072;22.192;2023-03-04T00:06:09;99947.56;;;3.42;100.00
68634;BME280;55625;47.072;22.192;2023-03-04T00:08:35;99941.13;;;3.46;100.00
68634;BME280;55625;47.072;22.192;2023-03-04T00:11:01;99941.13;;;3.49;100.00
68634;BME280;55625;47.072;22.192;2023-03-04T00:13:26;99943.13;;;3.52;100.00
68634;BME280;55625;47.072;22.192;2023-03-04T00:15:52;99932.31;;;3.54;100.00
68634;BME280;55625;47.072;22.192;2023-03-04T00:18:19;99936.31;;;3.57;100.00
68634;BME280;55625;47.072;22.192;2023-03-04T00:20:47;99931.09;;;3.59;100.00
68634;BME280;55625;47.072;22.192;2023-03-04T00:23:15;99931.09;;;3.62;100.00
68634;BME280;55625;47.072;22.192;2023-03-04T00:25:41;99920.69;;;3.66;100.00
68634;BME280;55625;47.072;22.192;2023-03-04T00:28:06;99923.91;;;3.68;100.00
68634;BME280;55625;47.072;22.192;2023-03-04T00:30:32;99917.09;;;3.73;100.00
68634;BME280;55625;47.072;22.192;2023-03-04T00:32:58;99915.88;;;3.74;100.00
68634;BME280;55625;47.072;22.192;2023-03-04T00:35:24;99922.69;;;3.77;100.00
68634;BME280;55625;47.072;22.192;2023-03-04T00:37:50;99913.06;;;3.78;100.00
68634;BME280;55625;47.072;22.192;2023-03-04T00:40:16;99916.28;;;3.80;100.00
68634;BME280;55625;47.072;22.192;2023-03-04T00:42:42;99908.25;;;3.82;100.00
68634;BME280;55625;47.072;22.192;2023-03-04T00:45:09;99907.44;;;3.85;100.00
68634;BME280;55625;47.072;22.192;2023-03-04T00:47:35;99899.00;;;3.88;100.00
68634;BME280;55625;47.072;22.192;2023-03-04T00:50:01;99903.41;;;3.89;100.00
68634;BME280;55625;47.072;22.192;2023-03-04T00:52:26;99894.19;;;3.92;100.00
68634;BME280;55625;47.072;22.192;2023-03-04T00:54:52;99894.16;;;3.96;100.00
68634;BME280;55625;47.072;22.192;2023-03-04T00:57:18;99895.38;;;3.98;100.00
68634;BME280;55625;47.072;22.192;2023-03-04T00:59:44;99890.97;;;4.01;100.00
68634;BME280;55625;47.072;22.192;2023-03-04T01:02:11;99881.72;;;4.04;100.00
68634;BME280;55625;47.072;22.192;2023-03-04T01:04:37;99887.34;;;4.08;100.00
68634;BME280;55625;47.072;22.192;2023-03-04T01:07:03;99880.91;;;4.11;100.00
68634;BME280;55625;47.072;22.192;2023-03-04T01:09:29;99880.88;;;4.14;100.00
68634;BME280;55625;47.072;22.192;2023-03-04T01:11:56;99885.28;;;4.19;100.00
68634;BME280;55625;47.072;22.192;2023-03-04T01:14:22;99873.63;;;4.20;100.00
68634;BME280;55625;47.072;22.192;2023-03-04T01:16:48;99880.44;;;4.23;100.00
68634;BME280;55625;47.072;22.192;2023-03-04T01:19:15;99890.47;;;4.27;100.00
68634;BME280;55625;47.072;22.192;2023-03-04T01:21:41;99878.03;;;4.32;100.00
68634;BME280;55625;47.072;22.192;2023-03-04T01:24:07;99877.22;;;4.35;100.00
68634;BME280;55625;47.072;22.192;2023-03-04T01:26:33;99876.81;;;4.36;100.00
68634;BME280;55625;47.072;22.192;2023-03-04T01:28:59;99875.19;;;4.39;100.00
68634;BME280;55625;47.072;22.192;2023-03-04T01:31:25;99871.97;;;4.41;100.00
68634;BME280;55625;47.072;22.192;2023-03-04T01:33:51;99865.53;;;4.44;100.00
68634;BME280;55625;47.072;22.192;2023-03-04T01:36:17;99870.34;;;4.43;100.00
68634;BME280;55625;47.072;22.192;2023-03-04T01:38:43;99865.91;;;4.46;100.00
68634;BME280;55625;47.072;22.192;2023-03-04T01:41:11;99869.53;;;4.46;100.00
68634;BME280;55625;47.072;22.192;2023-03-04T01:43:38;99855.88;;;4.48;100.00
68634;BME280;55625;47.072;22.192;2023-03-04T01:46:05;99860.69;;;4.48;100.00
68634;BME280;55625;47.072;22.192;2023-03-04T01:48:35;99853.84;;;4.49;100.00
68634;BME280;55625;47.072;22.192;2023-03-04T01:51:09;99856.22;;;4.54;100.00
68634;BME280;55625;47.072;22.192;2023-03-04T01:53:36;99853.00;;;4.55;100.00
68634;BME280;55625;47.072;22.192;2023-03-04T01:58:42;99846.97;;;4.60;100.00
68634;BME280;55625;47.072;22.192;2023-03-04T02:01:13;99837.31;;;4.65;100.00
68634;BME280;55625;47.072;22.192;2023-03-04T02:03:39;99842.13;;;4.68;100.00
68634;BME280;55625;47.072;22.192;2023-03-04T02:06:05;99842.09;;;4.72;100.00
68634;BME280;55625;47.072;22.192;2023-03-04T02:08:31;99835.63;;;4.75;100.00
68634;BME280;55625;47.072;22.192;2023-03-04T02:10:57;99830.00;;;4.75;100.00
68634;BME280;55625;47.072;22.192;2023-03-04T02:13:22;99825.16;;;4.79;100.00
68634;BME280;55625;47.072;22.192;2023-03-04T02:15:48;99821.94;;;4.80;100.00
68634;BME280;55625;47.072;22.192;2023-03-04T02:18:17;99824.34;;;4.82;100.00
68634;BME280;55625;47.072;22.192;2023-03-04T02:21:23;99821.91;;;4.84;100.00
68634;BME280;55625;47.072;22.192;2023-03-04T02:24:15;99817.09;;;4.84;100.00
68634;BME280;55625;47.072;22.192;2023-03-04T02:26:44;99814.28;;;4.84;100.00
68634;BME280;55625;47.072;22.192;2023-03-04T02:29:14;99812.25;;;4.85;100.00
68634;BME280;55625;47.072;22.192;2023-03-04T02:31:47;99815.06;;;4.85;100.00
68634;BME280;55625;47.072;22.192;2023-03-04T02:34:24;99819.50;;;4.86;100.00
68634;BME280;55625;47.072;22.192;2023-03-04T02:36:53;99811.06;;;4.86;100.00
68634;BME280;55625;47.072;22.192;2023-03-04T02:41:51;99815.47;;;4.87;100.00
68634;BME280;55625;47.072;22.192;2023-03-04T02:44:29;99812.66;;;4.87;100.00
68634;BME280;55625;47.072;22.192;2023-03-04T02:46:56;99815.47;;;4.87;100.00
68634;BME280;55625;47.072;22.192;2023-03-04T02:49:24;99809.84;;;4.87;100.00
68634;BME280;55625;47.072;22.192;2023-03-04T02:52:16;99805.81;;;4.88;100.00
68634;BME280;55625;47.072;22.192;2023-03-04T02:54:43;99799.41;;;4.87;100.00
68634;BME280;55625;47.072;22.192;2023-03-04T02:57:11;99807.03;;;4.87;100.00
68634;BME280;55625;47.072;22.192;2023-03-04T02:59:38;99809.84;;;4.87;100.00
68634;BME280;55625;47.072;22.192;2023-03-04T03:02:05;99802.63;;;4.86;100.00
68634;BME280;55625;47.072;22.192;2023-03-04T03:04:32;99801.03;;;4.85;100.00
68634;BME280;55625;47.072;22.192;2023-03-04T03:06:59;99792.59;;;4.85;100.00
68634;BME280;55625;47.072;22.192;2023-03-04T03:09:25;99802.19;;;4.87;100.00
68634;BME280;55625;47.072;22.192;2023-03-04T03:11:50;99800.59;;;4.90;100.00
68634;BME280;55625;47.072;22.192;2023-03-04T03:14:16;99797.78;;;4.90;100.00
68634;BME280;55625;47.072;22.192;2023-03-04T03:16:42;99792.16;;;4.90;100.00
68634;BME280;55625;47.072;22.192;2023-03-04T03:19:08;99792.16;;;4.90;100.00
68634;BME280;55625;47.072;22.192;2023-03-04T03:21:34;99790.97;;;4.91;100.00
68634;BME280;55625;47.072;22.192;2023-03-04T03:24:00;99789.34;;;4.90;100.00
68634;BME280;55625;47.072;22.192;2023-03-04T03:26:25;99786.53;;;4.90;100.00
68634;BME280;55625;47.072;22.192;2023-03-04T03:28:51;99784.91;;;4.89;100.00
68634;BME280;55625;47.072;22.192;2023-03-04T03:31:17;99776.91;;;4.87;100.00
68634;BME280;55625;47.072;22.192;2023-03-04T03:33:44;99776.50;;;4.85;100.00
68634;BME280;55625;47.072;22.192;2023-03-04T03:36:10;99776.94;;;4.84;100.00
68634;BME280;55625;47.072;22.192;2023-03-04T03:38:36;99775.34;;;4.83;100.00
68634;BME280;55625;47.072;22.192;2023-03-04T03:41:02;99780.16;;;4.82;100.00
68634;BME280;55625;47.072;22.192;2023-03-04T03:43:28;99776.16;;;4.80;100.00
68634;BME280;55625;47.072;22.192;2023-03-04T03:45:54;99782.97;;;4.82;100.00
68634;BME280;55625;47.072;22.192;2023-03-04T03:48:19;99785.81;;;4.79;100.00
68634;BME280;55625;47.072;22.192;2023-03-04T03:50:45;99791.41;;;4.82;100.00
68634;BME280;55625;47.072;22.192;2023-03-04T03:53:11;99780.19;;;4.79;100.00
68634;BME280;55625;47.072;22.192;2023-03-04T03:55:37;99778.63;;;4.74;100.00
68634;BME280;55625;47.072;22.192;2023-03-04T03:58:04;99778.66;;;4.71;100.00
68634;BME280;55625;47.072;22.192;2023-03-04T04:00:30;99773.41;;;4.73;100.00
68634;BME280;55625;47.072;22.192;2023-03-04T04:02:57;99767.03;;;4.68;100.00
68634;BME280;55625;47.072;22.192;2023-03-04T04:05:24;99769.06;;;4.64;100.00
68634;BME280;55625;47.072;22.192;2023-03-04T04:07:50;99765.88;;;4.62;100.00
68634;BME280;55625;47.072;22.192;2023-03-04T04:10:16;99770.28;;;4.63;100.00
68634;BME280;55625;47.072;22.192;2023-03-04T04:12:42;99769.44;;;4.66;100.00
68634;BME280;55625;47.072;22.192;2023-03-04T04:15:11;99762.59;;;4.67;100.00
68634;BME280;55625;47.072;22.192;2023-03-04T04:17:37;99757.78;;;4.68;100.00
68634;BME280;55625;47.072;22.192;2023-03-04T04:20:04;99767.84;;;4.65;100.00
68634;BME280;55625;47.072;22.192;2023-03-04T04:22:30;99759.41;;;4.65;100.00
68634;BME280;55625;47.072;22.192;2023-03-04T04:24:56;99753.38;;;4.67;100.00
68634;BME280;55625;47.072;22.192;2023-03-04T04:27:22;99760.22;;;4.66;100.00
68634;BME280;55625;47.072;22.192;2023-03-04T04:29:48;99751.41;;;4.64;100.00
68634;BME280;55625;47.072;22.192;2023-03-04T04:32:14;99749.38;;;4.64;100.00
68634;BME280;55625;47.072;22.192;2023-03-04T04:34:39;99751.81;;;4.62;100.00
68634;BME280;55625;47.072;22.192;2023-03-04T04:37:05;99754.63;;;4.62;100.00
68634;BME280;55625;47.072;22.192;2023-03-04T04:39:31;99749.38;;;4.64;100.00
68634;BME280;55625;47.072;22.192;2023-03-04T04:41:57;99746.56;;;4.64;100.00
68634;BME280;55625;47.072;22.192;2023-03-04T04:44:23;99747.75;;;4.67;100.00
68634;BME280;55625;47.072;22.192;2023-03-04T04:46:49;99746.13;;;4.70;100.00
68634;BME280;55625;47.072;22.192;2023-03-04T04:49:15;99751.75;;;4.70;100.00
68634;BME280;55625;47.072;22.192;2023-03-04T04:51:41;99753.75;;;4.69;100.00
68634;BME280;55625;47.072;22.192;2023-03-04T04:54:07;99752.56;;;4.70;100.00
68634;BME280;55625;47.072;22.192;2023-03-04T04:56:33;99754.13;;;4.75;100.00
68634;BME280;55625;47.072;22.192;2023-03-04T04:59:02;99752.56;;;4.70;100.00
68634;BME280;55625;47.072;22.192;2023-03-04T05:01:29;99750.16;;;4.68;100.00
68634;BME280;55625;47.072;22.192;2023-03-04T05:03:55;99747.38;;;4.65;100.00
68634;BME280;55625;47.072;22.192;2023-03-04T05:06:23;99753.41;;;4.63;100.00
68634;BME280;55625;47.072;22.192;2023-03-04T05:08:50;99757.44;;;4.62;100.00
68634;BME280;55625;47.072;22.192;2023-03-04T05:11:17;99743.78;;;4.61;100.00
68634;BME280;55625;47.072;22.192;2023-03-04T05:13:44;99753.81;;;4.58;100.00
68634;BME280;55625;47.072;22.192;2023-03-04T05:16:10;99757.47;;;4.55;100.00
68634;BME280;55625;47.072;22.192;2023-03-04T05:18:36;99760.69;;;4.54;100.00
68634;BME280;55625;47.072;22.192;2023-03-04T05:21:03;99756.31;;;4.49;100.00
68634;BME280;55625;47.072;22.192;2023-03-04T05:23:36;99760.31;;;4.48;100.00
68634;BME280;55625;47.072;22.192;2023-03-04T05:26:04;99764.38;;;4.44;100.00
68634;BME280;55625;47.072;22.192;2023-03-04T05:28:31;99759.56;;;4.44;100.00
68634;BME280;55625;47.072;22.192;2023-03-04T05:30:57;99763.19;;;4.41;100.00
68634;BME280;55625;47.072;22.192;2023-03-04T05:33:23;99757.94;;;4.43;100.00
68634;BME280;55625;47.072;22.192;2023-03-04T05:35:49;99756.38;;;4.39;100.00
68634;BME280;55625;47.072;22.192;2023-03-04T05:38:18;99759.59;;;4.37;100.00
68634;BME280;55625;47.072;22.192;2023-03-04T05:40:45;99761.19;;;4.42;100.00
68634;BME280;55625;47.072;22.192;2023-03-04T05:43:11;99751.53;;;4.43;100.00
68634;BME280;55625;47.072;22.192;2023-03-04T05:45:38;99757.94;;;4.43;100.00
68634;BME280;55625;47.072;22.192;2023-03-04T05:48:05;99763.91;;;4.52;100.00
68634;BME280;55625;47.072;22.192;2023-03-04T05:50:32;99753.88;;;4.51;100.00
68634;BME280;55625;47.072;22.192;2023-03-04T05:52:58;99745.41;;;4.55;100.00
68634;BME280;55625;47.072;22.192;2023-03-04T05:55:24;99753.44;;;4.60;100.00
68634;BME280;55625;47.072;22.192;2023-03-04T05:57:52;99750.22;;;4.58;100.00
68634;BME280;55625;47.072;22.192;2023-03-04T06:00:18;99748.19;;;4.62;100.00
68634;BME280;55625;47.072;22.192;2023-03-04T06:02:44;99748.19;;;4.58;100.00
68634;BME280;55625;47.072;22.192;2023-03-04T06:05:13;99754.22;;;4.64;100.00
68634;BME280;55625;47.072;22.192;2023-03-04T06:07:39;99756.16;;;4.71;100.00
68634;BME280;55625;47.072;22.192;2023-03-04T06:10:09;99756.16;;;4.71;100.00
68634;BME280;55625;47.072;22.192;2023-03-04T06:12:35;99760.97;;;4.70;100.00
68634;BME280;55625;47.072;22.192;2023-03-04T06:15:01;99761.72;;;4.78;100.00
68634;BME280;55625;47.072;22.192;2023-03-04T06:17:30;99766.50;;;4.81;100.00
68634;BME280;55625;47.072;22.192;2023-03-04T06:19:56;99768.13;;;4.82;100.00
68634;BME280;55625;47.072;22.192;2023-03-04T06:22:22;99765.66;;;4.87;100.00
68634;BME280;55625;47.072;22.192;2023-03-04T06:24:48;99765.66;;;4.91;100.00
68634;BME280;55625;47.072;22.192;2023-03-04T06:27:14;99769.63;;;4.97;100.00
68634;BME280;55625;47.072;22.192;2023-03-04T06:29:41;99770.19;;;5.19;100.00
68634;BME280;55625;47.072;22.192;2023-03-04T06:32:07;99769.97;;;5.44;100.00
68634;BME280;55625;47.072;22.192;2023-03-04T06:34:33;99777.81;;;5.63;100.00
68634;BME280;55625;47.072;22.192;2023-03-04T06:36:59;99792.19;;;5.72;99.60
68634;BME280;55625;47.072;22.192;2023-03-04T06:39:25;99786.84;;;5.81;99.31
68634;BME280;55625;47.072;22.192;2023-03-04T06:41:51;99783.16;;;5.88;99.76
68634;BME280;55625;47.072;22.192;2023-03-04T06:44:16;99791.19;;;5.93;98.71
68634;BME280;55625;47.072;22.192;2023-03-04T06:46:42;99786.34;;;5.94;98.98
68634;BME280;55625;47.072;22.192;2023-03-04T06:49:08;99783.53;;;5.94;98.77
68634;BME280;55625;47.072;22.192;2023-03-04T06:51:34;99786.38;;;5.90;98.58
68634;BME280;55625;47.072;22.192;2023-03-04T06:54:00;99787.19;;;5.87;99.20
68634;BME280;55625;47.072;22.192;2023-03-04T06:56:26;99777.53;;;5.88;98.98
68634;BME280;55625;47.072;22.192;2023-03-04T06:58:52;99778.66;;;5.98;98.99
68634;BME280;55625;47.072;22.192;2023-03-04T07:01:25;99778.13;;;6.06;99.39
68634;BME280;55625;47.072;22.192;2023-03-04T07:03:52;99776.69;;;6.25;98.37
68634;BME280;55625;47.072;22.192;2023-03-04T07:06:22;99775.56;;;6.49;98.67
68634;BME280;55625;47.072;22.192;2023-03-04T07:08:49;99777.66;;;6.69;97.33
68634;BME280;55625;47.072;22.192;2023-03-04T07:11:17;99783.22;;;6.76;97.71
68634;BME280;55625;47.072;22.192;2023-03-04T07:13:43;99769.06;;;6.79;96.68
68634;BME280;55625;47.072;22.192;2023-03-04T07:16:17;99763.84;;;7.01;94.98
68634;BME280;55625;47.072;22.192;2023-03-04T07:18:44;99761.91;;;7.22;94.28
68634;BME280;55625;47.072;22.192;2023-03-04T07:21:11;99770.00;;;7.43;93.33
68634;BME280;55625;47.072;22.192;2023-03-04T07:23:38;99759.25;;;7.77;90.72
68634;BME280;55625;47.072;22.192;2023-03-04T07:26:04;99749.63;;;7.75;88.95
68634;BME280;55625;47.072;22.192;2023-03-04T07:28:31;99752.38;;;7.98;89.31
68634;BME280;55625;47.072;22.192;2023-03-04T07:31:11;99758.13;;;8.31;88.39
68634;BME280;55625;47.072;22.192;2023-03-04T07:33:37;99758.38;;;8.56;86.38
68634;BME280;55625;47.072;22.192;2023-03-04T07:36:03;99754.09;;;8.68;86.43
68634;BME280;55625;47.072;22.192;2023-03-04T07:38:29;99761.53;;;8.94;86.55
68634;BME280;55625;47.072;22.192;2023-03-04T07:40:59;99758.69;;;9.11;86.38
68634;BME280;55625;47.072;22.192;2023-03-04T07:43:25;99757.13;;;9.26;83.35
68634;BME280;55625;47.072;22.192;2023-03-04T07:45:51;99752.84;;;9.18;84.41
68634;BME280;55625;47.072;22.192;2023-03-04T07:48:17;99750.31;;;9.23;84.30
68634;BME280;55625;47.072;22.192;2023-03-04T07:50:43;99747.91;;;9.22;83.61
68634;BME280;55625;47.072;22.192;2023-03-04T07:53:08;99746.31;;;9.21;82.88
68634;BME280;55625;47.072;22.192;2023-03-04T07:55:34;99750.81;;;9.18;83.93
68634;BME280;55625;47.072;22.192;2023-03-04T07:58:00;99754.25;;;9.42;84.53
68634;BME280;55625;47.072;22.192;2023-03-04T08:00:27;99753.78;;;9.44;83.81
68634;BME280;55625;47.072;22.192;2023-03-04T08:02:53;99753.34;;;9.61;84.13
68634;BME280;55625;47.072;22.192;2023-03-04T08:05:19;99748.47;;;9.46;83.94
68634;BME280;55625;47.072;22.192;2023-03-04T08:07:45;99749.91;;;9.38;84.12
68634;BME280;55625;47.072;22.192;2023-03-04T08:10:11;99748.44;;;9.17;83.04
68634;BME280;55625;47.072;22.192;2023-03-04T08:12:36;99741.19;;;8.99;84.66
68634;BME280;55625;47.072;22.192;2023-03-04T08:15:03;99752.34;;;8.90;86.30
68634;BME280;55625;47.072;22.192;2023-03-04T08:17:29;99748.81;;;9.02;85.22
68634;BME280;55625;47.072;22.192;2023-03-04T08:19:55;99752.00;;;9.21;85.30
68634;BME280;55625;47.072;22.192;2023-03-04T08:22:21;99746.66;;;9.07;84.40
68634;BME280;55625;47.072;22.192;2023-03-04T08:24:46;99747.13;;;9.21;84.29
68634;BME280;55625;47.072;22.192;2023-03-04T08:27:12;99759.94;;;9.26;84.44
68634;BME280;55625;47.072;22.192;2023-03-04T08:29:38;99753.22;;;9.03;83.83
68634;BME280;55625;47.072;22.192;2023-03-04T08:32:04;99754.66;;;8.95;85.08
68634;BME280;55625;47.072;22.192;2023-03-04T08:34:30;99765.94;;;8.63;85.03
68634;BME280;55625;47.072;22.192;2023-03-04T08:36:56;99753.47;;;8.77;86.43
68634;BME280;55625;47.072;22.192;2023-03-04T08:39:22;99758.16;;;8.67;84.67
68634;BME280;55625;47.072;22.192;2023-03-04T08:41:48;99747.41;;;8.42;86.36
68634;BME280;55625;47.072;22.192;2023-03-04T08:44:14;99762.41;;;8.59;85.73
68634;BME280;55625;47.072;22.192;2023-03-04T08:46:42;99752.91;;;8.49;85.93
68634;BME280;55625;47.072;22.192;2023-03-04T08:49:11;99751.94;;;8.56;85.58
68634;BME280;55625;47.072;22.192;2023-03-04T08:51:37;99745.44;;;8.75;85.44
68634;BME280;55625;47.072;22.192;2023-03-04T08:54:04;99751.47;;;8.93;84.09
68634;BME280;55625;47.072;22.192;2023-03-04T08:56:30;99749.84;;;9.09;83.29
68634;BME280;55625;47.072;22.192;2023-03-04T08:58:56;99738.00;;;9.30;82.38
68634;BME280;55625;47.072;22.192;2023-03-04T09:01:22;99750.13;;;9.14;82.30
68634;BME280;55625;47.072;22.192;2023-03-04T09:03:48;99735.72;;;8.92;83.66
68634;BME280;55625;47.072;22.192;2023-03-04T09:06:16;99730.22;;;9.01;84.08
68634;BME280;55625;47.072;22.192;2023-03-04T09:08:43;99737.66;;;8.79;83.69
68634;BME280;55625;47.072;22.192;2023-03-04T09:11:10;99748.06;;;8.66;84.65
68634;BME280;55625;47.072;22.192;2023-03-04T09:13:36;99743.47;;;8.72;84.25
68634;BME280;55625;47.072;22.192;2023-03-04T09:16:04;99741.97;;;8.84;85.68
68634;BME280;55625;47.072;22.192;2023-03-04T09:18:33;99729.16;;;8.95;84.55
68634;BME280;55625;47.072;22.192;2023-03-04T09:20:58;99727.59;;;8.94;84.79
68634;BME280;55625;47.072;22.192;2023-03-04T09:23:24;99723.31;;;9.02;83.97
68634;BME280;55625;47.072;22.192;2023-03-04T09:25:50;99723.88;;;8.97;83.10
68634;BME280;55625;47.072;22.192;2023-03-04T09:28:17;99719.94;;;9.24;81.74
68634;BME280;55625;47.072;22.192;2023-03-04T09:30:44;99720.59;;;9.73;81.78
68634;BME280;55625;47.072;22.192;2023-03-04T09:33:10;99722.25;;;9.87;78.57
68634;BME280;55625;47.072;22.192;2023-03-04T09:35:37;99713.34;;;9.72;79.35
68634;BME280;55625;47.072;22.192;2023-03-04T09:38:03;99723.97;;;9.55;79.25
68634;BME280;55625;47.072;22.192;2023-03-04T09:40:45;99720.59;;;9.44;80.17
68634;BME280;55625;47.072;22.192;2023-03-04T09:43:25;99714.94;;;9.44;80.24
68634;BME280;55625;47.072;22.192;2023-03-04T09:46:00;99717.94;;;9.53;81.63
68634;BME280;55625;47.072;22.192;2023-03-04T09:48:52;99720.91;;;9.62;80.93
68634;BME280;55625;47.072;22.192;2023-03-04T09:51:53;99716.59;;;9.87;78.00
68634;BME280;55625;47.072;22.192;2023-03-04T10:00:25;99708.09;;;9.87;77.30
68634;BME280;55625;47.072;22.192;2023-03-04T10:03:05;99694.84;;;9.96;76.16
68634;BME280;55625;47.072;22.192;2023-03-04T10:05:54;99695.59;;;9.84;77.52
68634;BME280;55625;47.072;22.192;2023-03-04T10:11:47;99687.59;;;9.67;79.45
68634;BME280;55625;47.072;22.192;2023-03-04T10:17:26;99673.72;;;9.85;77.50
68634;BME280;55625;47.072;22.192;2023-03-04T10:22:57;99668.41;;;9.87;77.50
68634;BME280;55625;47.072;22.192;2023-03-04T10:25:30;99673.97;;;9.90;78.17
68634;BME280;55625;47.072;22.192;2023-03-04T10:28:01;99678.84;;;9.90;79.53
68634;BME280;55625;47.072;22.192;2023-03-04T10:33:47;99668.06;;;9.85;78.32
68634;BME280;55625;47.072;22.192;2023-03-04T10:39:02;99651.84;;;9.85;78.51
68634;BME280;55625;47.072;22.192;2023-03-04T10:41:31;99658.78;;;9.55;77.17
68634;BME280;55625;47.072;22.192;2023-03-04T10:46:46;99661.38;;;10.04;77.24
68634;BME280;55625;47.072;22.192;2023-03-04T10:49:17;99648.81;;;10.18;76.75
68634;BME280;55625;47.072;22.192;2023-03-04T10:52:01;99638.41;;;10.40;75.82
68634;BME280;55625;47.072;22.192;2023-03-04T10:54:44;99636.03;;;10.51;75.11
68634;BME280;55625;47.072;22.192;2023-03-04T10:57:34;99631.56;;;10.63;74.14
68634;BME280;55625;47.072;22.192;2023-03-04T11:00:27;99623.59;;;10.71;72.88
68634;BME280;55625;47.072;22.192;2023-03-04T11:03:36;99620.13;;;10.54;72.59
68634;BME280;55625;47.072;22.192;2023-03-04T11:06:19;99611.84;;;10.60;72.32
68634;BME280;55625;47.072;22.192;2023-03-04T11:08:55;99605.31;;;10.84;70.59
68634;BME280;55625;47.072;22.192;2023-03-04T11:13:59;99594.44;;;10.70;69.68
68634;BME280;55625;47.072;22.192;2023-03-04T11:16:29;99590.19;;;10.87;69.15
68634;BME280;55625;47.072;22.192;2023-03-04T11:19:19;99589.53;;;10.71;69.53
68634;BME280;55625;47.072;22.192;2023-03-04T11:21:47;99588.81;;;10.92;69.75
68634;BME280;55625;47.072;22.192;2023-03-04T11:24:27;99581.72;;;11.09;68.69
68634;BME280;55625;47.072;22.192;2023-03-04T11:27:16;99595.13;;;11.09;69.13
68634;BME280;55625;47.072;22.192;2023-03-04T11:33:26;99563.63;;;11.16;67.72
68634;BME280;55625;47.072;22.192;2023-03-04T11:36:27;99566.59;;;11.12;66.74
68634;BME280;55625;47.072;22.192;2023-03-04T11:38:55;99562.81;;;11.15;67.36
68634;BME280;55625;47.072;22.192;2023-03-04T11:41:53;99558.88;;;11.35;66.78
68634;BME280;55625;47.072;22.192;2023-03-04T11:44:21;99554.13;;;11.10;66.10
68634;BME280;55625;47.072;22.192;2023-03-04T11:47:20;99554.50;;;11.21;67.99
68634;BME280;55625;47.072;22.192;2023-03-04T12:01:08;99529.88;;;11.71;65.34
68634;BME280;55625;47.072;22.192;2023-03-04T12:06:31;99523.13;;;11.25;63.08
68634;BME280;55625;47.072;22.192;2023-03-04T12:09:32;99518.69;;;11.24;61.29
68634;BME280;55625;47.072;22.192;2023-03-04T12:15:19;99515.34;;;11.16;64.99
68634;BME280;55625;47.072;22.192;2023-03-04T12:21:18;99505.88;;;11.72;59.34
68634;BME280;55625;47.072;22.192;2023-03-04T12:27:15;99502.53;;;11.64;61.58
68634;BME280;55625;47.072;22.192;2023-03-04T12:44:30;99487.78;;;11.26;60.17
68634;BME280;55625;47.072;22.192;2023-03-04T12:47:25;99493.41;;;10.95;60.10
68634;BME280;55625;47.072;22.192;2023-03-04T12:53:43;99470.47;;;11.33;60.91
68634;BME280;55625;47.072;22.192;2023-03-04T12:55:39;99467.22;;;11.43;59.78
68634;BME280;55625;47.072;22.192;2023-03-04T12:58:20;99470.53;;;11.20;61.33
68634;BME280;55625;47.072;22.192;2023-03-04T13:01:26;99454.31;;;10.99;60.29
68634;BME280;55625;47.072;22.192;2023-03-04T13:09:51;99447.31;;;11.12;60.91
68634;BME280;55625;47.072;22.192;2023-03-04T13:12:22;99443.41;;;10.97;60.64
68634;BME280;55625;47.072;22.192;2023-03-04T13:20:39;99424.28;;;10.88;59.99
68634;BME280;55625;47.072;22.192;2023-03-04T13:25:41;99422.31;;;10.76;60.97
68634;BME280;55625;47.072;22.192;2023-03-04T13:38:32;99395.91;;;11.19;55.14
68634;BME280;55625;47.072;22.192;2023-03-04T13:41:22;99392.56;;;11.12;55.64
68634;BME280;55625;47.072;22.192;2023-03-04T13:43:56;99392.84;;;11.05;54.29
68634;BME280;55625;47.072;22.192;2023-03-04T13:56:30;99379.41;;;10.74;53.33
68634;BME280;55625;47.072;22.192;2023-03-04T14:06:42;99367.38;;;10.26;55.01
68634;BME280;55625;47.072;22.192;2023-03-04T14:09:29;99368.09;;;10.18;55.46
68634;BME280;55625;47.072;22.192;2023-03-04T14:11:59;99367.47;;;10.36;55.84
68634;BME280;55625;47.072;22.192;2023-03-04T14:14:50;99364.88;;;10.29;54.90
68634;BME280;55625;47.072;22.192;2023-03-04T14:17:26;99363.34;;;10.15;56.35
68634;BME280;55625;47.072;22.192;2023-03-04T14:19:53;99349.78;;;10.32;55.13
68634;BME280;55625;47.072;22.192;2023-03-04T14:22:30;99349.38;;;10.20;55.40
68634;BME280;55625;47.072;22.192;2023-03-04T14:27:34;99346.88;;;10.22;55.77
68634;BME280;55625;47.072;22.192;2023-03-04T14:30:05;99344.88;;;10.10;56.06
68634;BME280;55625;47.072;22.192;2023-03-04T14:32:32;99345.38;;;9.96;57.40
68634;BME280;55625;47.072;22.192;2023-03-04T14:35:03;99344.66;;;10.05;57.50
68634;BME280;55625;47.072;22.192;2023-03-04T14:38:02;99347.72;;;10.10;56.03
68634;BME280;55625;47.072;22.192;2023-03-04T14:40:39;99332.09;;;9.93;56.59
68634;BME280;55625;47.072;22.192;2023-03-04T14:43:20;99333.22;;;9.95;55.83
68634;BME280;55625;47.072;22.192;2023-03-04T14:45:57;99334.34;;;9.98;56.59
68634;BME280;55625;47.072;22.192;2023-03-04T14:48:31;99335.88;;;9.90;56.77
68634;BME280;55625;47.072;22.192;2023-03-04T14:51:00;99333.22;;;9.61;57.52
68634;BME280;55625;47.072;22.192;2023-03-04T14:53:31;99324.19;;;9.41;58.82
68634;BME280;55625;47.072;22.192;2023-03-04T14:58:38;99321.75;;;9.64;56.85
68634;BME280;55625;47.072;22.192;2023-03-04T15:03:55;99310.69;;;9.45;57.46
68634;BME280;55625;47.072;22.192;2023-03-04T15:06:24;99304.72;;;9.30;58.60
68634;BME280;55625;47.072;22.192;2023-03-04T15:09:03;99306.09;;;9.13;59.14
68634;BME280;55625;47.072;22.192;2023-03-04T15:11:49;99303.59;;;9.15;58.54
68634;BME280;55625;47.072;22.192;2023-03-04T15:14:49;99301.13;;;9.04;58.45